createdAt,value
2017-08-14T00:00:02.935Z,791.32
2017-08-14T00:00:07.161Z,791.3
2017-08-14T00:00:11.518Z,791.28
2017-08-14T00:00:15.735Z,791.32
2017-08-14T00:00:20.194Z,791.32
2017-08-14T00:00:24.660Z,791.3
2017-08-14T00:00:29.018Z,791.24
2017-08-14T00:00:33.480Z,791.3
2017-08-14T00:00:37.958Z,791.31
2017-08-14T00:00:42.304Z,791.3
2017-08-14T00:00:46.761Z,791.27
2017-08-14T00:00:51.117Z,791.26
2017-08-14T00:00:55.567Z,791.31
2017-08-14T00:01:00.034Z,791.31
2017-08-14T00:01:04.496Z,791.28
2017-08-14T00:01:08.729Z,791.28
2017-08-14T00:01:13.180Z,791.29
2017-08-14T00:01:17.555Z,791.32
2017-08-14T00:01:22.030Z,791.34
2017-08-14T00:01:26.379Z,791.33
2017-08-14T00:01:30.846Z,791.3
2017-08-14T00:01:35.317Z,791.29
2017-08-14T00:01:39.797Z,791.29
2017-08-14T00:01:44.248Z,791.32
2017-08-14T00:01:48.722Z,791.33
2017-08-14T00:01:53.173Z,791.34
2017-08-14T00:01:57.638Z,791.31
2017-08-14T00:02:02.251Z,791.32
2017-08-14T00:02:06.595Z,791.33
2017-08-14T00:02:11.070Z,791.32
2017-08-14T00:02:15.311Z,791.31
2017-08-14T00:02:19.770Z,791.3
2017-08-14T00:02:24.240Z,791.26
2017-08-14T00:02:28.699Z,791.29
2017-08-14T00:02:33.161Z,791.33
2017-08-14T00:02:37.620Z,791.35
2017-08-14T00:02:41.858Z,791.26
2017-08-14T00:02:46.326Z,791.34
2017-08-14T00:02:50.808Z,791.31
2017-08-14T00:02:55.278Z,791.31
2017-08-14T00:02:59.748Z,791.35
2017-08-14T00:03:04.108Z,791.35
2017-08-14T00:03:08.628Z,791.34
2017-08-14T00:03:13.078Z,791.35
2017-08-14T00:03:17.301Z,791.33
2017-08-14T00:03:21.656Z,791.35
2017-08-14T00:03:26.006Z,791.36
2017-08-14T00:03:30.476Z,791.35
2017-08-14T00:03:34.952Z,791.35
2017-08-14T00:03:39.413Z,791.34
2017-08-14T00:03:43.754Z,791.37
2017-08-14T00:03:48.210Z,791.37
2017-08-14T00:03:52.571Z,791.36
2017-08-14T00:03:56.904Z,791.37
2017-08-14T00:04:01.377Z,791.35
2017-08-14T00:04:06.136Z,791.33
2017-08-14T00:04:10.597Z,791.37
2017-08-14T00:04:15.058Z,791.37
2017-08-14T00:04:19.538Z,791.4
2017-08-14T00:04:23.767Z,791.38
2017-08-14T00:04:28.105Z,791.42
2017-08-14T00:04:32.591Z,791.39
2017-08-14T00:04:37.050Z,791.39
2017-08-14T00:04:41.400Z,791.4
2017-08-14T00:04:45.863Z,791.42
2017-08-14T00:04:50.192Z,791.39
2017-08-14T00:04:54.411Z,791.41
2017-08-14T00:04:58.863Z,791.43
2017-08-14T00:05:03.559Z,791.4
2017-08-14T00:05:08.026Z,791.43
2017-08-14T00:05:12.394Z,791.47
2017-08-14T00:05:16.858Z,791.45
2017-08-14T00:05:21.202Z,791.42
2017-08-14T00:05:25.678Z,791.4
2017-08-14T00:05:29.908Z,791.43
2017-08-14T00:05:34.373Z,791.46
2017-08-14T00:05:38.830Z,791.47
2017-08-14T00:05:43.061Z,791.49
2017-08-14T00:05:47.399Z,791.49
2017-08-14T00:05:51.757Z,791.49
2017-08-14T00:05:56.243Z,791.5
2017-08-14T00:06:00.587Z,791.52
2017-08-14T00:06:05.067Z,791.48
2017-08-14T00:06:09.294Z,791.54
2017-08-14T00:06:13.738Z,791.5
2017-08-14T00:06:18.211Z,791.47
2017-08-14T00:06:22.678Z,791.48
2017-08-14T00:06:27.146Z,791.51
2017-08-14T00:06:31.611Z,791.52
2017-08-14T00:06:36.079Z,791.53
2017-08-14T00:06:40.432Z,791.55
2017-08-14T00:06:44.877Z,791.53
2017-08-14T00:06:49.346Z,791.56
2017-08-14T00:06:53.700Z,791.57
2017-08-14T00:06:58.164Z,791.57
2017-08-14T00:07:02.670Z,791.56
2017-08-14T00:07:07.019Z,791.59
2017-08-14T00:07:11.469Z,791.52
2017-08-14T00:07:15.934Z,791.55
2017-08-14T00:07:20.302Z,791.59
2017-08-14T00:07:24.651Z,791.54
2017-08-14T00:07:28.991Z,791.58
2017-08-14T00:07:33.461Z,791.61
2017-08-14T00:07:37.933Z,791.58
2017-08-14T00:07:42.274Z,791.53
2017-08-14T00:07:46.661Z,791.58
2017-08-14T00:07:50.996Z,791.61
2017-08-14T00:07:55.357Z,791.57
2017-08-14T00:07:59.729Z,791.6
2017-08-14T00:08:04.191Z,791.62
2017-08-14T00:08:08.639Z,791.61
2017-08-14T00:08:13.096Z,791.61
2017-08-14T00:08:17.549Z,791.61
2017-08-14T00:08:21.892Z,791.58
2017-08-14T00:08:26.351Z,791.62
2017-08-14T00:08:30.705Z,791.63
2017-08-14T00:08:34.933Z,791.64
2017-08-14T00:08:39.407Z,791.65
2017-08-14T00:08:43.759Z,791.63
2017-08-14T00:08:48.227Z,791.6
2017-08-14T00:08:52.682Z,791.66
2017-08-14T00:08:56.908Z,791.65
2017-08-14T00:09:01.262Z,791.69
2017-08-14T00:09:05.724Z,791.66
2017-08-14T00:09:10.068Z,791.64
2017-08-14T00:09:14.424Z,791.62
2017-08-14T00:09:19.070Z,791.65
2017-08-14T00:09:23.298Z,791.65
2017-08-14T00:09:27.745Z,791.69
2017-08-14T00:09:31.980Z,791.67
2017-08-14T00:09:36.416Z,791.68
2017-08-14T00:09:40.770Z,791.67
2017-08-14T00:09:45.250Z,791.67
2017-08-14T00:09:49.594Z,791.66
2017-08-14T00:09:53.951Z,791.67
2017-08-14T00:09:58.427Z,791.68
2017-08-14T00:10:02.945Z,791.7
2017-08-14T00:10:07.188Z,791.63
2017-08-14T00:10:11.532Z,791.69
2017-08-14T00:10:16.000Z,791.72
2017-08-14T00:10:20.455Z,791.71
2017-08-14T00:10:24.786Z,791.65
2017-08-14T00:10:29.247Z,791.71
2017-08-14T00:10:33.682Z,791.71
2017-08-14T00:10:38.170Z,791.71
2017-08-14T00:10:42.267Z,791.72
2017-08-14T00:10:46.613Z,791.67
2017-08-14T00:10:51.076Z,791.65
2017-08-14T00:10:55.543Z,791.73
2017-08-14T00:10:59.987Z,791.74
2017-08-14T00:11:04.487Z,791.75
2017-08-14T00:11:08.851Z,791.76
2017-08-14T00:11:13.182Z,791.75
2017-08-14T00:11:17.540Z,791.74
2017-08-14T00:11:22.010Z,791.76
2017-08-14T00:11:26.362Z,791.75
2017-08-14T00:11:30.823Z,791.8
2017-08-14T00:11:35.194Z,791.77
2017-08-14T00:11:39.660Z,791.8
2017-08-14T00:11:43.997Z,791.77
2017-08-14T00:11:48.343Z,791.81
2017-08-14T00:11:52.807Z,791.78
2017-08-14T00:11:57.267Z,791.8
2017-08-14T00:12:01.821Z,791.79
2017-08-14T00:12:06.184Z,791.82
2017-08-14T00:12:10.650Z,791.81
2017-08-14T00:12:15.105Z,791.8
2017-08-14T00:12:19.445Z,791.81
2017-08-14T00:12:23.902Z,791.76
2017-08-14T00:12:28.372Z,791.81
2017-08-14T00:12:32.869Z,791.88
2017-08-14T00:12:37.341Z,791.87
2017-08-14T00:12:41.695Z,791.89
2017-08-14T00:12:46.040Z,791.89
2017-08-14T00:12:50.493Z,791.88
2017-08-14T00:12:54.952Z,791.87
2017-08-14T00:12:59.457Z,791.87
2017-08-14T00:13:03.805Z,791.89
2017-08-14T00:13:08.287Z,791.89
2017-08-14T00:13:12.747Z,791.9
2017-08-14T00:13:17.223Z,791.87
2017-08-14T00:13:21.684Z,791.88
2017-08-14T00:13:26.151Z,791.88
2017-08-14T00:13:30.506Z,791.93
2017-08-14T00:13:34.987Z,791.91
2017-08-14T00:13:39.107Z,791.9
2017-08-14T00:13:43.334Z,791.93
2017-08-14T00:13:47.791Z,791.89
2017-08-14T00:13:52.236Z,791.9
2017-08-14T00:13:56.725Z,791.92
2017-08-14T00:14:01.186Z,791.91
2017-08-14T00:14:05.522Z,791.9
2017-08-14T00:14:09.870Z,791.91
2017-08-14T00:14:14.337Z,791.91
2017-08-14T00:14:18.795Z,791.94
2017-08-14T00:14:23.146Z,791.97
2017-08-14T00:14:27.626Z,791.96
2017-08-14T00:14:32.094Z,791.97
2017-08-14T00:14:36.562Z,791.97
2017-08-14T00:14:40.774Z,791.98
2017-08-14T00:14:45.219Z,791.99
2017-08-14T00:14:49.552Z,791.98
2017-08-14T00:14:54.017Z,791.99
2017-08-14T00:14:58.470Z,791.99
2017-08-14T00:15:02.816Z,791.97
2017-08-14T00:15:07.286Z,791.91
2017-08-14T00:15:11.624Z,792
2017-08-14T00:15:15.958Z,792
2017-08-14T00:15:20.436Z,791.95
2017-08-14T00:15:24.897Z,791.97
2017-08-14T00:15:29.349Z,792.01
2017-08-14T00:15:33.831Z,791.99
2017-08-14T00:15:38.298Z,792.01
2017-08-14T00:15:42.765Z,791.99
2017-08-14T00:15:47.213Z,791.99
2017-08-14T00:15:51.681Z,792
2017-08-14T00:15:56.162Z,791.98
2017-08-14T00:16:00.642Z,791.98
2017-08-14T00:16:05.293Z,792.01
2017-08-14T00:16:09.634Z,792.01
2017-08-14T00:16:14.097Z,792.03
2017-08-14T00:16:18.449Z,792.03
2017-08-14T00:16:22.807Z,792.03
2017-08-14T00:16:27.156Z,792.07
2017-08-14T00:16:31.402Z,792.06
2017-08-14T00:16:35.874Z,792.07
2017-08-14T00:16:40.220Z,792.03
2017-08-14T00:16:44.555Z,792.04
2017-08-14T00:16:49.009Z,792.08
2017-08-14T00:16:53.472Z,792.07
2017-08-14T00:16:57.930Z,792.06
2017-08-14T00:17:02.292Z,792.09
2017-08-14T00:17:06.638Z,792.09
2017-08-14T00:17:11.100Z,792.05
2017-08-14T00:17:15.439Z,792.04
2017-08-14T00:17:19.900Z,792.08
2017-08-14T00:17:24.354Z,792.07
2017-08-14T00:17:28.581Z,792.09
2017-08-14T00:17:33.040Z,792.09
2017-08-14T00:17:37.505Z,792.08
2017-08-14T00:17:41.968Z,792.04
2017-08-14T00:17:46.440Z,792.09
2017-08-14T00:17:50.910Z,792.12
2017-08-14T00:17:55.375Z,792.13
2017-08-14T00:17:59.855Z,792.13
2017-08-14T00:18:04.203Z,792.13
2017-08-14T00:18:08.670Z,792.12
2017-08-14T00:18:13.012Z,792.15
2017-08-14T00:18:17.494Z,792.13
2017-08-14T00:18:21.845Z,792.13
2017-08-14T00:18:26.314Z,792.15
2017-08-14T00:18:30.554Z,792.15
2017-08-14T00:18:35.001Z,792.15
2017-08-14T00:18:39.349Z,792.14
2017-08-14T00:18:43.796Z,792.16
2017-08-14T00:18:48.264Z,792.17
2017-08-14T00:18:52.729Z,792.18
2017-08-14T00:18:57.063Z,792.18
2017-08-14T00:19:01.416Z,792.14
2017-08-14T00:19:05.877Z,792.18
2017-08-14T00:19:10.220Z,792.17
2017-08-14T00:19:14.685Z,792.15
2017-08-14T00:19:19.041Z,792.21
2017-08-14T00:19:23.518Z,792.2
2017-08-14T00:19:27.867Z,792.21
2017-08-14T00:19:32.199Z,792.21
2017-08-14T00:19:36.670Z,792.19
2017-08-14T00:19:40.885Z,792.21
2017-08-14T00:19:45.348Z,792.19
2017-08-14T00:19:49.809Z,792.21
2017-08-14T00:19:54.287Z,792.19
2017-08-14T00:19:58.747Z,792.2
2017-08-14T00:20:03.209Z,792.23
2017-08-14T00:20:07.558Z,792.23
2017-08-14T00:20:12.024Z,792.22
2017-08-14T00:20:16.505Z,792.24
2017-08-14T00:20:20.853Z,792.18
2017-08-14T00:20:25.317Z,792.19
2017-08-14T00:20:29.426Z,792.21
2017-08-14T00:20:33.893Z,792.22
2017-08-14T00:20:38.357Z,792.19
2017-08-14T00:20:42.696Z,792.24
2017-08-14T00:20:47.176Z,792.25
2017-08-14T00:20:51.645Z,792.2
2017-08-14T00:20:55.974Z,792.24
2017-08-14T00:21:00.432Z,792.28
2017-08-14T00:21:04.875Z,792.28
2017-08-14T00:21:09.107Z,792.28
2017-08-14T00:21:13.584Z,792.29
2017-08-14T00:21:18.041Z,792.27
2017-08-14T00:21:22.259Z,792.28
2017-08-14T00:21:26.612Z,792.29
2017-08-14T00:21:30.983Z,792.28
2017-08-14T00:21:35.439Z,792.31
2017-08-14T00:21:39.911Z,792.26
2017-08-14T00:21:44.276Z,792.32
2017-08-14T00:21:48.737Z,792.33
2017-08-14T00:21:53.078Z,792.32
2017-08-14T00:21:57.543Z,792.34
2017-08-14T00:22:02.347Z,792.33
2017-08-14T00:22:06.466Z,792.33
2017-08-14T00:22:10.710Z,792.31
2017-08-14T00:22:15.041Z,792.33
2017-08-14T00:22:19.504Z,792.35
2017-08-14T00:22:23.987Z,792.35
2017-08-14T00:22:28.451Z,792.37
2017-08-14T00:22:32.808Z,792.37
2017-08-14T00:22:37.278Z,792.35
2017-08-14T00:22:41.755Z,792.37
2017-08-14T00:22:46.216Z,792.39
2017-08-14T00:22:50.673Z,792.36
2017-08-14T00:22:55.146Z,792.36
2017-08-14T00:22:59.611Z,792.37
2017-08-14T00:23:04.173Z,792.42
2017-08-14T00:23:08.522Z,792.4
2017-08-14T00:23:13.008Z,792.4
2017-08-14T00:23:17.475Z,792.4
2017-08-14T00:23:21.694Z,792.44
2017-08-14T00:23:26.049Z,792.42
2017-08-14T00:23:30.526Z,792.41
2017-08-14T00:23:34.994Z,792.42
2017-08-14T00:23:39.447Z,792.44
2017-08-14T00:23:43.675Z,792.47
2017-08-14T00:23:48.137Z,792.4
2017-08-14T00:23:52.591Z,792.42
2017-08-14T00:23:57.049Z,792.47
2017-08-14T00:24:01.392Z,792.51
2017-08-14T00:24:05.854Z,792.51
2017-08-14T00:24:10.067Z,792.46
2017-08-14T00:24:14.511Z,792.49
2017-08-14T00:24:18.909Z,792.51
2017-08-14T00:24:23.245Z,792.54
2017-08-14T00:24:27.728Z,792.56
2017-08-14T00:24:32.211Z,792.5
2017-08-14T00:24:36.675Z,792.59
2017-08-14T00:24:40.771Z,792.57
2017-08-14T00:24:45.247Z,792.59
2017-08-14T00:24:49.491Z,792.56
2017-08-14T00:24:53.833Z,792.6
2017-08-14T00:24:58.294Z,792.58
2017-08-14T00:25:02.767Z,792.61
2017-08-14T00:25:07.234Z,792.62
2017-08-14T00:25:11.447Z,792.6
2017-08-14T00:25:15.900Z,792.59
2017-08-14T00:25:20.106Z,792.61
2017-08-14T00:25:24.457Z,792.65
2017-08-14T00:25:28.696Z,792.65
2017-08-14T00:25:33.156Z,792.61
2017-08-14T00:25:37.626Z,792.65
2017-08-14T00:25:41.985Z,792.63
2017-08-14T00:25:46.450Z,792.69
2017-08-14T00:25:50.911Z,792.68
2017-08-14T00:25:55.260Z,792.71
2017-08-14T00:25:59.704Z,792.73
2017-08-14T00:26:04.160Z,792.69
2017-08-14T00:26:08.622Z,792.73
2017-08-14T00:26:13.106Z,792.71
2017-08-14T00:26:17.333Z,792.71
2017-08-14T00:26:21.692Z,792.74
2017-08-14T00:26:26.148Z,792.77
2017-08-14T00:26:30.474Z,792.75
2017-08-14T00:26:34.949Z,792.75
2017-08-14T00:26:39.309Z,792.72
2017-08-14T00:26:43.665Z,792.76
2017-08-14T00:26:48.006Z,792.77
2017-08-14T00:26:52.359Z,792.76
2017-08-14T00:26:56.834Z,792.75
2017-08-14T00:27:01.289Z,792.74
2017-08-14T00:27:06.060Z,792.78
2017-08-14T00:27:10.527Z,792.78
2017-08-14T00:27:14.880Z,792.82
2017-08-14T00:27:19.343Z,792.78
2017-08-14T00:27:23.795Z,792.83
2017-08-14T00:27:28.266Z,792.81
2017-08-14T00:27:32.736Z,792.78
2017-08-14T00:27:37.095Z,792.83
2017-08-14T00:27:41.556Z,792.75
2017-08-14T00:27:46.036Z,792.8
2017-08-14T00:27:50.519Z,792.83
2017-08-14T00:27:54.989Z,792.8
2017-08-14T00:27:59.466Z,792.8
2017-08-14T00:28:04.171Z,792.76
2017-08-14T00:28:08.624Z,792.82
2017-08-14T00:28:13.077Z,792.77
2017-08-14T00:28:17.300Z,792.84
2017-08-14T00:28:21.758Z,792.8
2017-08-14T00:28:26.233Z,792.8
2017-08-14T00:28:30.689Z,792.82
2017-08-14T00:28:35.145Z,792.77
2017-08-14T00:28:39.622Z,792.79
2017-08-14T00:28:43.972Z,792.81
2017-08-14T00:28:48.185Z,792.8
2017-08-14T00:28:52.415Z,792.81
2017-08-14T00:28:56.890Z,792.83
2017-08-14T00:29:01.244Z,792.81
2017-08-14T00:29:05.575Z,792.82
2017-08-14T00:29:10.047Z,792.8
2017-08-14T00:29:14.505Z,792.82
2017-08-14T00:29:18.854Z,792.77
2017-08-14T00:29:23.186Z,792.81
2017-08-14T00:29:27.684Z,792.8
2017-08-14T00:29:32.148Z,792.8
2017-08-14T00:29:36.603Z,792.8
2017-08-14T00:29:40.863Z,792.76
2017-08-14T00:29:45.343Z,792.78
2017-08-14T00:29:49.686Z,792.77
2017-08-14T00:29:54.030Z,792.76
2017-08-14T00:29:58.498Z,792.79
2017-08-14T00:30:03.270Z,792.76
2017-08-14T00:30:07.614Z,792.73
2017-08-14T00:30:12.082Z,792.76
2017-08-14T00:30:16.442Z,792.77
2017-08-14T00:30:20.806Z,792.75
2017-08-14T00:30:25.154Z,792.77
2017-08-14T00:30:29.612Z,792.75
2017-08-14T00:30:34.087Z,792.73
2017-08-14T00:30:38.556Z,792.75
2017-08-14T00:30:42.905Z,792.7
2017-08-14T00:30:47.259Z,792.66
2017-08-14T00:30:51.605Z,792.69
2017-08-14T00:30:55.949Z,792.65
2017-08-14T00:31:00.413Z,792.64
2017-08-14T00:31:04.893Z,792.68
2017-08-14T00:31:09.365Z,792.67
2017-08-14T00:31:13.833Z,792.65
2017-08-14T00:31:18.173Z,792.66
2017-08-14T00:31:22.648Z,792.66
2017-08-14T00:31:27.108Z,792.62
2017-08-14T00:31:31.568Z,792.61
2017-08-14T00:31:36.046Z,792.6
2017-08-14T00:31:40.164Z,792.57
2017-08-14T00:31:44.505Z,792.61
2017-08-14T00:31:48.987Z,792.66
2017-08-14T00:31:53.319Z,792.62
2017-08-14T00:31:57.539Z,792.63
2017-08-14T00:32:01.991Z,792.61
2017-08-14T00:32:06.444Z,792.6
2017-08-14T00:32:10.894Z,792.59
2017-08-14T00:32:15.258Z,792.49
2017-08-14T00:32:19.733Z,792.56
2017-08-14T00:32:24.070Z,792.56
2017-08-14T00:32:28.538Z,792.57
2017-08-14T00:32:33.012Z,792.56
2017-08-14T00:32:37.474Z,792.52
2017-08-14T00:32:41.577Z,792.56
2017-08-14T00:32:46.056Z,792.53
2017-08-14T00:32:50.502Z,792.49
2017-08-14T00:32:54.961Z,792.5
2017-08-14T00:32:59.301Z,792.49
2017-08-14T00:33:03.754Z,792.51
2017-08-14T00:33:08.113Z,792.47
2017-08-14T00:33:12.457Z,792.48
2017-08-14T00:33:16.911Z,792.47
2017-08-14T00:33:21.017Z,792.45
2017-08-14T00:33:25.479Z,792.41
2017-08-14T00:33:29.936Z,792.41
2017-08-14T00:33:34.407Z,792.4
2017-08-14T00:33:38.760Z,792.4
2017-08-14T00:33:42.966Z,792.38
2017-08-14T00:33:47.405Z,792.35
2017-08-14T00:33:51.759Z,792.36
2017-08-14T00:33:56.120Z,792.34
2017-08-14T00:34:00.595Z,792.32
2017-08-14T00:34:04.944Z,792.3
2017-08-14T00:34:09.409Z,792.28
2017-08-14T00:34:13.748Z,792.28
2017-08-14T00:34:18.199Z,792.27
2017-08-14T00:34:22.663Z,792.26
2017-08-14T00:34:27.120Z,792.24
2017-08-14T00:34:31.586Z,792.21
2017-08-14T00:34:36.071Z,792.25
2017-08-14T00:34:40.297Z,792.21
2017-08-14T00:34:44.628Z,792.19
2017-08-14T00:34:49.083Z,792.18
2017-08-14T00:34:53.544Z,792.16
2017-08-14T00:34:57.905Z,792.13
2017-08-14T00:35:02.367Z,792.15
2017-08-14T00:35:06.696Z,792.13
2017-08-14T00:35:10.910Z,792.1
2017-08-14T00:35:15.380Z,792.13
2017-08-14T00:35:19.727Z,792.1
2017-08-14T00:35:24.213Z,792.08
2017-08-14T00:35:28.586Z,792.03
2017-08-14T00:35:32.923Z,792.07
2017-08-14T00:35:37.272Z,792.07
2017-08-14T00:35:41.489Z,792.04
2017-08-14T00:35:45.959Z,792.04
2017-08-14T00:35:50.416Z,792.05
2017-08-14T00:35:54.641Z,791.99
2017-08-14T00:35:58.978Z,791.98
2017-08-14T00:36:03.436Z,791.99
2017-08-14T00:36:07.914Z,792.01
2017-08-14T00:36:12.374Z,791.95
2017-08-14T00:36:16.715Z,791.94
2017-08-14T00:36:20.943Z,791.96
2017-08-14T00:36:25.411Z,791.92
2017-08-14T00:36:29.863Z,791.93
2017-08-14T00:36:34.320Z,791.92
2017-08-14T00:36:38.687Z,791.93
2017-08-14T00:36:42.948Z,791.9
2017-08-14T00:36:47.421Z,791.9
2017-08-14T00:36:51.652Z,791.88
2017-08-14T00:36:55.987Z,791.87
2017-08-14T00:37:00.449Z,791.86
2017-08-14T00:37:04.787Z,791.83
2017-08-14T00:37:09.269Z,791.84
2017-08-14T00:37:13.731Z,791.83
2017-08-14T00:37:18.193Z,791.84
2017-08-14T00:37:22.547Z,791.8
2017-08-14T00:37:27.000Z,791.82
2017-08-14T00:37:31.465Z,791.81
2017-08-14T00:37:35.925Z,791.77
2017-08-14T00:37:40.257Z,791.8
2017-08-14T00:37:44.713Z,791.75
2017-08-14T00:37:49.171Z,791.76
2017-08-14T00:37:53.638Z,791.75
2017-08-14T00:37:57.981Z,791.75
2017-08-14T00:38:02.340Z,791.73
2017-08-14T00:38:06.680Z,791.73
2017-08-14T00:38:10.919Z,791.73
2017-08-14T00:38:15.380Z,791.7
2017-08-14T00:38:19.725Z,791.66
2017-08-14T00:38:23.947Z,791.66
2017-08-14T00:38:28.421Z,791.67
2017-08-14T00:38:32.905Z,791.68
2017-08-14T00:38:37.236Z,791.68
2017-08-14T00:38:41.571Z,791.67
2017-08-14T00:38:46.057Z,791.67
2017-08-14T00:38:50.527Z,791.66
2017-08-14T00:38:54.988Z,791.64
2017-08-14T00:38:59.341Z,791.64
2017-08-14T00:39:03.792Z,791.62
2017-08-14T00:39:08.124Z,791.59
2017-08-14T00:39:12.479Z,791.63
2017-08-14T00:39:16.937Z,791.6
2017-08-14T00:39:21.646Z,791.6
2017-08-14T00:39:26.132Z,791.59
2017-08-14T00:39:30.593Z,791.57
2017-08-14T00:39:34.950Z,791.55
2017-08-14T00:39:39.442Z,791.53
2017-08-14T00:39:43.796Z,791.54
2017-08-14T00:39:48.019Z,791.58
2017-08-14T00:39:52.366Z,791.54
2017-08-14T00:39:56.618Z,791.56
2017-08-14T00:40:01.081Z,791.55
2017-08-14T00:40:05.480Z,791.54
2017-08-14T00:40:09.944Z,791.53
2017-08-14T00:40:14.285Z,791.52
2017-08-14T00:40:18.629Z,791.49
2017-08-14T00:40:22.860Z,791.5
2017-08-14T00:40:27.207Z,791.48
2017-08-14T00:40:31.539Z,791.48
2017-08-14T00:40:36.007Z,791.46
2017-08-14T00:40:40.231Z,791.43
2017-08-14T00:40:44.564Z,791.38
2017-08-14T00:40:48.804Z,791.46
2017-08-14T00:40:53.260Z,791.41
2017-08-14T00:40:57.728Z,791.41
2017-08-14T00:41:02.181Z,791.43
2017-08-14T00:41:06.641Z,791.41
2017-08-14T00:41:11.099Z,791.42
2017-08-14T00:41:15.547Z,791.39
2017-08-14T00:41:20.021Z,791.4
2017-08-14T00:41:24.487Z,791.39
2017-08-14T00:41:28.826Z,791.39
2017-08-14T00:41:33.294Z,791.37
2017-08-14T00:41:37.750Z,791.34
2017-08-14T00:41:42.102Z,791.36
2017-08-14T00:41:46.450Z,791.36
2017-08-14T00:41:50.910Z,791.34
2017-08-14T00:41:55.376Z,791.34
2017-08-14T00:41:59.715Z,791.29
2017-08-14T00:42:04.056Z,791.32
2017-08-14T00:42:08.508Z,791.31
2017-08-14T00:42:12.879Z,791.29
2017-08-14T00:42:17.344Z,791.27
2017-08-14T00:42:21.687Z,791.28
2017-08-14T00:42:25.931Z,791.24
2017-08-14T00:42:30.400Z,791.24
2017-08-14T00:42:34.848Z,791.2
2017-08-14T00:42:39.205Z,791.21
2017-08-14T00:42:43.450Z,791.24
2017-08-14T00:42:47.903Z,791.23
2017-08-14T00:42:52.227Z,791.22
2017-08-14T00:42:56.666Z,791.19
2017-08-14T00:43:01.125Z,791.2
2017-08-14T00:43:05.581Z,791.2
2017-08-14T00:43:10.050Z,791.19
2017-08-14T00:43:14.501Z,791.16
2017-08-14T00:43:18.959Z,791.16
2017-08-14T00:43:23.437Z,791.17
2017-08-14T00:43:27.765Z,791.15
2017-08-14T00:43:32.237Z,791.15
2017-08-14T00:43:36.708Z,791.14
2017-08-14T00:43:40.942Z,791.15
2017-08-14T00:43:45.287Z,791.11
2017-08-14T00:43:49.754Z,791.13
2017-08-14T00:43:54.221Z,791.09
2017-08-14T00:43:58.702Z,791.11
2017-08-14T00:44:03.526Z,791.14
2017-08-14T00:44:07.869Z,791.07
2017-08-14T00:44:12.320Z,791.09
2017-08-14T00:44:16.785Z,791.05
2017-08-14T00:44:21.233Z,791.07
2017-08-14T00:44:25.703Z,791.02
2017-08-14T00:44:30.046Z,791
2017-08-14T00:44:34.522Z,791.04
2017-08-14T00:44:38.851Z,791.03
2017-08-14T00:44:43.076Z,790.98
2017-08-14T00:44:47.551Z,791.01
2017-08-14T00:44:52.022Z,790.99
2017-08-14T00:44:56.488Z,791.01
2017-08-14T00:45:00.942Z,790.98
2017-08-14T00:45:05.421Z,790.97
2017-08-14T00:45:09.871Z,790.99
2017-08-14T00:45:14.344Z,790.96
2017-08-14T00:45:18.803Z,790.99
2017-08-14T00:45:23.260Z,790.96
2017-08-14T00:45:27.728Z,790.94
2017-08-14T00:45:32.084Z,790.92
2017-08-14T00:45:36.422Z,790.92
2017-08-14T00:45:40.873Z,790.92
2017-08-14T00:45:45.230Z,790.92
2017-08-14T00:45:49.689Z,790.92
2017-08-14T00:45:54.142Z,790.91
2017-08-14T00:45:58.595Z,790.91
2017-08-14T00:46:02.944Z,790.92
2017-08-14T00:46:07.297Z,790.9
2017-08-14T00:46:11.641Z,790.88
2017-08-14T00:46:16.108Z,790.9
2017-08-14T00:46:20.561Z,790.91
2017-08-14T00:46:24.903Z,790.86
2017-08-14T00:46:29.356Z,790.86
2017-08-14T00:46:33.818Z,790.86
2017-08-14T00:46:38.301Z,790.81
2017-08-14T00:46:42.537Z,790.84
2017-08-14T00:46:46.890Z,790.85
2017-08-14T00:46:51.232Z,790.84
2017-08-14T00:46:55.674Z,790.83
2017-08-14T00:47:00.127Z,790.77
2017-08-14T00:47:04.672Z,790.78
2017-08-14T00:47:09.145Z,790.81
2017-08-14T00:47:13.588Z,790.83
2017-08-14T00:47:18.044Z,790.78
2017-08-14T00:47:22.509Z,790.76
2017-08-14T00:47:26.870Z,790.82
2017-08-14T00:47:31.334Z,790.8
2017-08-14T00:47:35.808Z,790.74
2017-08-14T00:47:40.153Z,790.73
2017-08-14T00:47:44.628Z,790.76
2017-08-14T00:47:49.090Z,790.78
2017-08-14T00:47:53.553Z,790.75
2017-08-14T00:47:58.018Z,790.8
2017-08-14T00:48:02.731Z,790.76
2017-08-14T00:48:07.065Z,790.76
2017-08-14T00:48:11.307Z,790.78
2017-08-14T00:48:15.647Z,790.76
2017-08-14T00:48:19.859Z,790.79
2017-08-14T00:48:24.214Z,790.76
2017-08-14T00:48:28.669Z,790.79
2017-08-14T00:48:33.023Z,790.75
2017-08-14T00:48:37.472Z,790.78
2017-08-14T00:48:41.580Z,790.77
2017-08-14T00:48:46.052Z,790.77
2017-08-14T00:48:50.515Z,790.78
2017-08-14T00:48:54.985Z,790.77
2017-08-14T00:48:59.450Z,790.72
2017-08-14T00:49:03.909Z,790.76
2017-08-14T00:49:08.143Z,790.77
2017-08-14T00:49:12.605Z,790.75
2017-08-14T00:49:17.089Z,790.76
2017-08-14T00:49:21.420Z,790.75
2017-08-14T00:49:25.642Z,790.74
2017-08-14T00:49:30.121Z,790.75
2017-08-14T00:49:34.461Z,790.72
2017-08-14T00:49:38.918Z,790.75
2017-08-14T00:49:43.033Z,790.75
2017-08-14T00:49:47.494Z,790.76
2017-08-14T00:49:51.815Z,790.76
2017-08-14T00:49:56.301Z,790.73
2017-08-14T00:50:00.770Z,790.74
2017-08-14T00:50:05.382Z,790.74
2017-08-14T00:50:09.848Z,790.74
2017-08-14T00:50:14.308Z,790.71
2017-08-14T00:50:18.646Z,790.69
2017-08-14T00:50:22.867Z,790.74
2017-08-14T00:50:27.214Z,790.73
2017-08-14T00:50:31.546Z,790.75
2017-08-14T00:50:36.015Z,790.67
2017-08-14T00:50:40.383Z,790.71
2017-08-14T00:50:44.603Z,790.73
2017-08-14T00:50:48.957Z,790.72
2017-08-14T00:50:53.418Z,790.69
2017-08-14T00:50:57.773Z,790.73
2017-08-14T00:51:02.244Z,790.73
2017-08-14T00:51:06.712Z,790.72
2017-08-14T00:51:11.051Z,790.69
2017-08-14T00:51:15.505Z,790.71
2017-08-14T00:51:19.980Z,790.7
2017-08-14T00:51:24.325Z,790.67
2017-08-14T00:51:28.674Z,790.66
2017-08-14T00:51:33.136Z,790.71
2017-08-14T00:51:37.604Z,790.71
2017-08-14T00:51:42.075Z,790.68
2017-08-14T00:51:46.543Z,790.7
2017-08-14T00:51:51.018Z,790.7
2017-08-14T00:51:55.469Z,790.74
2017-08-14T00:51:59.933Z,790.65
2017-08-14T00:52:04.278Z,790.65
2017-08-14T00:52:08.616Z,790.69
2017-08-14T00:52:12.952Z,790.66
2017-08-14T00:52:17.288Z,790.68
2017-08-14T00:52:21.750Z,790.65
2017-08-14T00:52:25.976Z,790.67
2017-08-14T00:52:30.442Z,790.68
2017-08-14T00:52:34.904Z,790.65
2017-08-14T00:52:39.371Z,790.66
2017-08-14T00:52:43.842Z,790.68
2017-08-14T00:52:48.293Z,790.65
2017-08-14T00:52:52.755Z,790.61
2017-08-14T00:52:57.218Z,790.65
2017-08-14T00:53:01.559Z,790.66
2017-08-14T00:53:06.276Z,790.61
2017-08-14T00:53:10.756Z,790.64
2017-08-14T00:53:15.217Z,790.64
2017-08-14T00:53:19.674Z,790.63
2017-08-14T00:53:24.031Z,790.61
2017-08-14T00:53:28.486Z,790.61
2017-08-14T00:53:32.824Z,790.6
2017-08-14T00:53:37.048Z,790.61
2017-08-14T00:53:41.537Z,790.6
2017-08-14T00:53:45.992Z,790.59
2017-08-14T00:53:50.341Z,790.55
2017-08-14T00:53:54.828Z,790.57
2017-08-14T00:53:59.294Z,790.56
2017-08-14T00:54:04.123Z,790.56
2017-08-14T00:54:08.582Z,790.53
2017-08-14T00:54:12.927Z,790.53
2017-08-14T00:54:17.159Z,790.55
2017-08-14T00:54:21.374Z,790.52
2017-08-14T00:54:25.831Z,790.53
2017-08-14T00:54:30.291Z,790.53
2017-08-14T00:54:34.763Z,790.52
2017-08-14T00:54:39.224Z,790.52
2017-08-14T00:54:43.709Z,790.48
2017-08-14T00:54:48.051Z,790.51
2017-08-14T00:54:52.510Z,790.48
2017-08-14T00:54:56.974Z,790.5
2017-08-14T00:55:01.431Z,790.49
2017-08-14T00:55:05.831Z,790.48
2017-08-14T00:55:10.177Z,790.45
2017-08-14T00:55:14.417Z,790.47